sensor_id;sensor_type;location;lat;lon;timestamp;temperature;humidity
29731;DHT22;16639;51.488;0.152;2023-04-01T00:02:50;10.50;99.90
29731;DHT22;16639;51.488;0.152;2023-04-01T00:05:29;10.50;99.90
29731;DHT22;16639;51.488;0.152;2023-04-01T00:07:57;10.50;99.90
29731;DHT22;16639;51.488;0.152;2023-04-01T00:10:24;10.60;99.90
29731;DHT22;16639;51.488;0.152;2023-04-01T00:12:52;10.50;99.90
29731;DHT22;16639;51.488;0.152;2023-04-01T00:15:20;10.50;99.90
29731;DHT22;16639;51.488;0.152;2023-04-01T00:17:47;10.50;99.90
29731;DHT22;16639;51.488;0.152;2023-04-01T00:20:15;10.50;99.90
29731;DHT22;16639;51.488;0.152;2023-04-01T00:22:43;10.50;99.90
29731;DHT22;16639;51.488;0.152;2023-04-01T00:25:10;10.50;99.90
29731;DHT22;16639;51.488;0.152;2023-04-01T00:27:38;10.60;99.90
29731;DHT22;16639;51.488;0.152;2023-04-01T00:30:06;10.50;99.90
29731;DHT22;16639;51.488;0.152;2023-04-01T00:32:34;10.50;99.90
29731;DHT22;16639;51.488;0.152;2023-04-01T00:35:03;10.50;99.90
29731;DHT22;16639;51.488;0.152;2023-04-01T00:37:30;10.50;99.90
29731;DHT22;16639;51.488;0.152;2023-04-01T00:39:58;10.50;99.90
29731;DHT22;16639;51.488;0.152;2023-04-01T00:42:26;10.40;99.90
29731;DHT22;16639;51.488;0.152;2023-04-01T00:44:54;10.40;99.90
29731;DHT22;16639;51.488;0.152;2023-04-01T00:47:23;10.40;99.90
29731;DHT22;16639;51.488;0.152;2023-04-01T00:49:53;10.20;99.90
29731;DHT22;16639;51.488;0.152;2023-04-01T00:52:23;10.40;99.90
29731;DHT22;16639;51.488;0.152;2023-04-01T00:55:10;10.40;99.90
29731;DHT22;16639;51.488;0.152;2023-04-01T00:58:14;10.40;99.90
29731;DHT22;16639;51.488;0.152;2023-04-01T01:00:50;10.40;99.90
29731;DHT22;16639;51.488;0.152;2023-04-01T01:03:36;10.50;99.90
29731;DHT22;16639;51.488;0.152;2023-04-01T01:11:31;10.40;99.90
29731;DHT22;16639;51.488;0.152;2023-04-01T01:14:24;10.40;99.90
29731;DHT22;16639;51.488;0.152;2023-04-01T01:17:07;10.40;99.90
29731;DHT22;16639;51.488;0.152;2023-04-01T01:22:33;10.30;99.90
29731;DHT22;16639;51.488;0.152;2023-04-01T01:31:26;10.30;99.90
29731;DHT22;16639;51.488;0.152;2023-04-01T01:34:18;10.30;99.90
29731;DHT22;16639;51.488;0.152;2023-04-01T01:36:52;10.30;99.90
29731;DHT22;16639;51.488;0.152;2023-04-01T01:39:22;10.80;99.90
29731;DHT22;16639;51.488;0.152;2023-04-01T01:41:57;10.30;99.90
29731;DHT22;16639;51.488;0.152;2023-04-01T01:44:28;10.20;99.90
29731;DHT22;16639;51.488;0.152;2023-04-01T01:46:57;10.30;99.90
29731;DHT22;16639;51.488;0.152;2023-04-01T01:49:25;10.20;99.90
29731;DHT22;16639;51.488;0.152;2023-04-01T01:51:53;10.30;99.90
29731;DHT22;16639;51.488;0.152;2023-04-01T01:54:20;10.30;99.90
29731;DHT22;16639;51.488;0.152;2023-04-01T01:56:51;10.20;99.90
29731;DHT22;16639;51.488;0.152;2023-04-01T01:59:20;10.20;99.90
29731;DHT22;16639;51.488;0.152;2023-04-01T02:01:51;10.30;99.90
29731;DHT22;16639;51.488;0.152;2023-04-01T02:04:19;10.20;99.90
29731;DHT22;16639;51.488;0.152;2023-04-01T02:07:03;10.20;99.90
29731;DHT22;16639;51.488;0.152;2023-04-01T02:09:33;10.20;99.90
29731;DHT22;16639;51.488;0.152;2023-04-01T02:12:05;10.20;99.90
29731;DHT22;16639;51.488;0.152;2023-04-01T02:15:00;10.10;99.90
29731;DHT22;16639;51.488;0.152;2023-04-01T02:17:31;10.10;99.90
29731;DHT22;16639;51.488;0.152;2023-04-01T02:20:02;10.20;99.90
29731;DHT22;16639;51.488;0.152;2023-04-01T02:22:36;10.10;99.90
29731;DHT22;16639;51.488;0.152;2023-04-01T02:25:13;10.10;99.90
29731;DHT22;16639;51.488;0.152;2023-04-01T02:27:42;10.10;99.90
29731;DHT22;16639;51.488;0.152;2023-04-01T02:30:11;10.10;99.90
29731;DHT22;16639;51.488;0.152;2023-04-01T02:32:39;10.10;99.90
29731;DHT22;16639;51.488;0.152;2023-04-01T02:35:09;10.00;99.90
29731;DHT22;16639;51.488;0.152;2023-04-01T02:37:38;10.10;99.90
29731;DHT22;16639;51.488;0.152;2023-04-01T02:40:12;11.30;99.90
29731;DHT22;16639;51.488;0.152;2023-04-01T02:42:40;10.00;99.90
29731;DHT22;16639;51.488;0.152;2023-04-01T02:45:08;10.00;99.90
29731;DHT22;16639;51.488;0.152;2023-04-01T02:47:36;10.00;99.90
29731;DHT22;16639;51.488;0.152;2023-04-01T02:50:24;10.00;99.90
29731;DHT22;16639;51.488;0.152;2023-04-01T02:52:52;10.00;99.90
29731;DHT22;16639;51.488;0.152;2023-04-01T02:55:19;10.00;99.90
29731;DHT22;16639;51.488;0.152;2023-04-01T02:57:47;10.10;99.90
29731;DHT22;16639;51.488;0.152;2023-04-01T03:00:15;10.00;99.90
29731;DHT22;16639;51.488;0.152;2023-04-01T03:02:42;10.10;99.90
29731;DHT22;16639;51.488;0.152;2023-04-01T03:05:11;10.00;99.90
29731;DHT22;16639;51.488;0.152;2023-04-01T03:07:39;10.00;99.90
29731;DHT22;16639;51.488;0.152;2023-04-01T03:10:07;10.40;99.90
29731;DHT22;16639;51.488;0.152;2023-04-01T03:12:35;9.90;99.90
29731;DHT22;16639;51.488;0.152;2023-04-01T03:15:03;9.90;99.90
29731;DHT22;16639;51.488;0.152;2023-04-01T03:17:38;10.00;99.90
29731;DHT22;16639;51.488;0.152;2023-04-01T03:20:06;10.00;99.90
29731;DHT22;16639;51.488;0.152;2023-04-01T03:22:35;10.00;99.90
29731;DHT22;16639;51.488;0.152;2023-04-01T03:25:04;10.00;99.90
29731;DHT22;16639;51.488;0.152;2023-04-01T03:27:32;10.00;99.90
29731;DHT22;16639;51.488;0.152;2023-04-01T03:29:59;10.00;99.90
29731;DHT22;16639;51.488;0.152;2023-04-01T03:32:26;10.70;99.90
29731;DHT22;16639;51.488;0.152;2023-04-01T03:34:54;10.70;99.90
29731;DHT22;16639;51.488;0.152;2023-04-01T03:37:23;10.00;99.90
29731;DHT22;16639;51.488;0.152;2023-04-01T03:39:50;10.40;99.90
29731;DHT22;16639;51.488;0.152;2023-04-01T03:42:18;10.00;99.90
29731;DHT22;16639;51.488;0.152;2023-04-01T03:44:45;10.00;99.90
29731;DHT22;16639;51.488;0.152;2023-04-01T03:47:13;10.00;99.90
29731;DHT22;16639;51.488;0.152;2023-04-01T03:49:40;9.90;99.90
29731;DHT22;16639;51.488;0.152;2023-04-01T03:52:10;9.90;99.90
29731;DHT22;16639;51.488;0.152;2023-04-01T03:54:38;9.90;99.90
29731;DHT22;16639;51.488;0.152;2023-04-01T03:57:05;9.90;99.90
29731;DHT22;16639;51.488;0.152;2023-04-01T03:59:33;10.00;99.90
29731;DHT22;16639;51.488;0.152;2023-04-01T04:02:01;10.00;99.90
29731;DHT22;16639;51.488;0.152;2023-04-01T04:04:28;10.20;99.90
29731;DHT22;16639;51.488;0.152;2023-04-01T04:06:57;9.90;99.90
29731;DHT22;16639;51.488;0.152;2023-04-01T04:09:25;10.40;99.90
29731;DHT22;16639;51.488;0.152;2023-04-01T04:11:52;9.90;99.90
29731;DHT22;16639;51.488;0.152;2023-04-01T04:14:20;9.90;99.90
29731;DHT22;16639;51.488;0.152;2023-04-01T04:16:47;9.90;99.90
29731;DHT22;16639;51.488;0.152;2023-04-01T04:19:15;9.90;99.90
29731;DHT22;16639;51.488;0.152;2023-04-01T04:21:42;9.90;99.90
29731;DHT22;16639;51.488;0.152;2023-04-01T04:24:10;9.90;99.90
29731;DHT22;16639;51.488;0.152;2023-04-01T04:26:37;9.80;99.90
29731;DHT22;16639;51.488;0.152;2023-04-01T04:29:04;9.80;99.90
29731;DHT22;16639;51.488;0.152;2023-04-01T04:31:34;9.80;99.90
29731;DHT22;16639;51.488;0.152;2023-04-01T04:34:02;9.70;99.90
29731;DHT22;16639;51.488;0.152;2023-04-01T04:36:29;9.80;99.90
29731;DHT22;16639;51.488;0.152;2023-04-01T04:38:57;9.70;99.90
29731;DHT22;16639;51.488;0.152;2023-04-01T04:41:25;9.70;99.90
29731;DHT22;16639;51.488;0.152;2023-04-01T04:43:54;9.60;99.90
29731;DHT22;16639;51.488;0.152;2023-04-01T04:46:22;9.80;99.90
29731;DHT22;16639;51.488;0.152;2023-04-01T04:48:50;9.80;99.90
29731;DHT22;16639;51.488;0.152;2023-04-01T04:51:19;9.80;99.90
29731;DHT22;16639;51.488;0.152;2023-04-01T04:53:47;9.80;99.90
29731;DHT22;16639;51.488;0.152;2023-04-01T04:56:21;9.80;99.90
29731;DHT22;16639;51.488;0.152;2023-04-01T04:58:49;9.80;99.90
29731;DHT22;16639;51.488;0.152;2023-04-01T05:01:17;9.90;99.90
29731;DHT22;16639;51.488;0.152;2023-04-01T05:06:31;9.80;99.90
29731;DHT22;16639;51.488;0.152;2023-04-01T05:08:59;9.80;99.90
29731;DHT22;16639;51.488;0.152;2023-04-01T05:11:26;9.70;99.90
29731;DHT22;16639;51.488;0.152;2023-04-01T05:13:55;9.70;99.90
29731;DHT22;16639;51.488;0.152;2023-04-01T05:16:22;9.70;99.90
29731;DHT22;16639;51.488;0.152;2023-04-01T05:18:50;9.70;99.90
29731;DHT22;16639;51.488;0.152;2023-04-01T05:21:17;9.70;99.90
29731;DHT22;16639;51.488;0.152;2023-04-01T05:23:44;9.70;99.90
29731;DHT22;16639;51.488;0.152;2023-04-01T05:26:13;9.70;99.90
29731;DHT22;16639;51.488;0.152;2023-04-01T05:28:41;9.60;99.90
29731;DHT22;16639;51.488;0.152;2023-04-01T05:31:09;9.70;99.90
29731;DHT22;16639;51.488;0.152;2023-04-01T05:33:37;9.70;99.90
29731;DHT22;16639;51.488;0.152;2023-04-01T05:36:16;9.70;99.90
29731;DHT22;16639;51.488;0.152;2023-04-01T05:38:44;9.70;99.90
29731;DHT22;16639;51.488;0.152;2023-04-01T05:41:13;10.00;99.90
29731;DHT22;16639;51.488;0.152;2023-04-01T05:43:42;9.80;99.90
29731;DHT22;16639;51.488;0.152;2023-04-01T05:46:09;9.70;99.90
29731;DHT22;16639;51.488;0.152;2023-04-01T05:48:37;9.70;99.90
29731;DHT22;16639;51.488;0.152;2023-04-01T05:51:04;9.70;99.90
29731;DHT22;16639;51.488;0.152;2023-04-01T05:53:32;9.70;99.90
29731;DHT22;16639;51.488;0.152;2023-04-01T05:56:03;9.70;99.90
29731;DHT22;16639;51.488;0.152;2023-04-01T05:58:31;9.70;99.90
29731;DHT22;16639;51.488;0.152;2023-04-01T06:01:06;9.70;99.90
29731;DHT22;16639;51.488;0.152;2023-04-01T06:03:40;9.70;99.90
29731;DHT22;16639;51.488;0.152;2023-04-01T06:06:15;9.70;99.90
29731;DHT22;16639;51.488;0.152;2023-04-01T06:08:43;9.70;99.90
29731;DHT22;16639;51.488;0.152;2023-04-01T06:11:25;9.70;99.90
29731;DHT22;16639;51.488;0.152;2023-04-01T06:19:29;10.20;99.90
29731;DHT22;16639;51.488;0.152;2023-04-01T06:22:15;9.70;99.90
29731;DHT22;16639;51.488;0.152;2023-04-01T06:25:07;9.70;99.90
29731;DHT22;16639;51.488;0.152;2023-04-01T06:33:41;9.60;99.90
29731;DHT22;16639;51.488;0.152;2023-04-01T06:41:31;9.70;99.90
29731;DHT22;16639;51.488;0.152;2023-04-01T06:50:03;9.80;99.90
29731;DHT22;16639;51.488;0.152;2023-04-01T06:55:51;9.80;99.90
29731;DHT22;16639;51.488;0.152;2023-04-01T06:58:27;9.80;99.90
29731;DHT22;16639;51.488;0.152;2023-04-01T07:01:02;9.80;99.90
29731;DHT22;16639;51.488;0.152;2023-04-01T07:03:35;9.80;99.90
29731;DHT22;16639;51.488;0.152;2023-04-01T07:06:06;9.80;99.90
29731;DHT22;16639;51.488;0.152;2023-04-01T07:08:38;9.80;99.90
29731;DHT22;16639;51.488;0.152;2023-04-01T07:11:10;9.80;99.90
29731;DHT22;16639;51.488;0.152;2023-04-01T07:14:08;9.80;99.90
29731;DHT22;16639;51.488;0.152;2023-04-01T07:17:06;10.20;99.90
29731;DHT22;16639;51.488;0.152;2023-04-01T07:19:44;9.70;99.90
29731;DHT22;16639;51.488;0.152;2023-04-01T07:24:59;9.80;99.90
29731;DHT22;16639;51.488;0.152;2023-04-01T07:27:28;10.40;99.90
29731;DHT22;16639;51.488;0.152;2023-04-01T07:29:57;9.80;99.90
29731;DHT22;16639;51.488;0.152;2023-04-01T07:35:30;9.80;99.90
29731;DHT22;16639;51.488;0.152;2023-04-01T07:38:39;9.80;99.90
29731;DHT22;16639;51.488;0.152;2023-04-01T07:41:12;9.60;99.90
29731;DHT22;16639;51.488;0.152;2023-04-01T07:44:44;9.90;99.90
29731;DHT22;16639;51.488;0.152;2023-04-01T07:49:49;9.90;99.90
29731;DHT22;16639;51.488;0.152;2023-04-01T07:54:50;9.90;99.90
29731;DHT22;16639;51.488;0.152;2023-04-01T08:00:30;9.90;99.90
29731;DHT22;16639;51.488;0.152;2023-04-01T08:06:37;9.70;99.90
29731;DHT22;16639;51.488;0.152;2023-04-01T08:12:16;9.90;99.90
29731;DHT22;16639;51.488;0.152;2023-04-01T08:15:04;9.70;99.90
29731;DHT22;16639;51.488;0.152;2023-04-01T08:18:21;9.80;99.90
29731;DHT22;16639;51.488;0.152;2023-04-01T08:20:58;9.70;99.90
29731;DHT22;16639;51.488;0.152;2023-04-01T08:23:36;9.80;99.90
29731;DHT22;16639;51.488;0.152;2023-04-01T08:29:24;9.80;99.90
29731;DHT22;16639;51.488;0.152;2023-04-01T08:32:17;9.80;99.90
29731;DHT22;16639;51.488;0.152;2023-04-01T08:34:50;9.90;99.90
29731;DHT22;16639;51.488;0.152;2023-04-01T08:37:24;9.90;99.90
29731;DHT22;16639;51.488;0.152;2023-04-01T08:39:58;9.90;99.90
29731;DHT22;16639;51.488;0.152;2023-04-01T08:42:36;9.90;99.90
29731;DHT22;16639;51.488;0.152;2023-04-01T08:56:15;10.20;99.90
29731;DHT22;16639;51.488;0.152;2023-04-01T09:04:31;10.30;99.90
29731;DHT22;16639;51.488;0.152;2023-04-01T09:07:39;10.40;99.90
29731;DHT22;16639;51.488;0.152;2023-04-01T09:15:42;10.40;99.90
29731;DHT22;16639;51.488;0.152;2023-04-01T09:18:28;10.50;99.90
29731;DHT22;16639;51.488;0.152;2023-04-01T09:27:26;10.60;99.90
29731;DHT22;16639;51.488;0.152;2023-04-01T09:41:27;10.40;99.90
29731;DHT22;16639;51.488;0.152;2023-04-01T09:44:06;10.30;99.90
29731;DHT22;16639;51.488;0.152;2023-04-01T09:50:20;10.20;99.90
29731;DHT22;16639;51.488;0.152;2023-04-01T10:09:45;10.60;99.90
29731;DHT22;16639;51.488;0.152;2023-04-01T10:23:37;10.50;99.90
29731;DHT22;16639;51.488;0.152;2023-04-01T10:29:17;10.50;99.90
29731;DHT22;16639;51.488;0.152;2023-04-01T10:44:04;10.60;99.90
29731;DHT22;16639;51.488;0.152;2023-04-01T11:05:46;10.60;99.90
29731;DHT22;16639;51.488;0.152;2023-04-01T11:22:07;10.60;99.90
29731;DHT22;16639;51.488;0.152;2023-04-01T11:27:42;10.50;99.90
29731;DHT22;16639;51.488;0.152;2023-04-01T11:35:46;10.40;99.90
29731;DHT22;16639;51.488;0.152;2023-04-01T11:38:30;10.40;99.90
29731;DHT22;16639;51.488;0.152;2023-04-01T11:41:28;10.40;99.90
29731;DHT22;16639;51.488;0.152;2023-04-01T11:44:18;10.40;99.90
29731;DHT22;16639;51.488;0.152;2023-04-01T11:57:46;11.00;99.90
29731;DHT22;16639;51.488;0.152;2023-04-01T12:00:37;11.10;99.90
29731;DHT22;16639;51.488;0.152;2023-04-01T12:11:41;11.20;99.90
29731;DHT22;16639;51.488;0.152;2023-04-01T12:14:13;11.20;99.90
29731;DHT22;16639;51.488;0.152;2023-04-01T12:17:08;11.20;99.90
29731;DHT22;16639;51.488;0.152;2023-04-01T12:22:49;11.30;99.90
29731;DHT22;16639;51.488;0.152;2023-04-01T12:36:59;11.50;99.90
29731;DHT22;16639;51.488;0.152;2023-04-01T12:45:34;11.40;99.90
29731;DHT22;16639;51.488;0.152;2023-04-01T12:51:35;11.30;99.90
29731;DHT22;16639;51.488;0.152;2023-04-01T13:11:56;11.30;99.90
29731;DHT22;16639;51.488;0.152;2023-04-01T13:29:26;11.40;99.90
29731;DHT22;16639;51.488;0.152;2023-04-01T13:37:26;11.50;99.90
29731;DHT22;16639;51.488;0.152;2023-04-01T13:40:22;11.70;99.90
29731;DHT22;16639;51.488;0.152;2023-04-01T13:54:56;11.50;99.90
29731;DHT22;16639;51.488;0.152;2023-04-01T14:06:19;11.60;99.90
29731;DHT22;16639;51.488;0.152;2023-04-01T14:17:21;12.90;99.90
29731;DHT22;16639;51.488;0.152;2023-04-01T14:20:06;11.70;99.90
29731;DHT22;16639;51.488;0.152;2023-04-01T14:29:02;10.50;99.90
29731;DHT22;16639;51.488;0.152;2023-04-01T14:34:53;11.90;99.90
29731;DHT22;16639;51.488;0.152;2023-04-01T14:49:02;11.30;99.90
29731;DHT22;16639;51.488;0.152;2023-04-01T14:51:39;11.30;99.90
29731;DHT22;16639;51.488;0.152;2023-04-01T14:54:32;11.30;99.90
29731;DHT22;16639;51.488;0.152;2023-04-01T14:57:13;11.30;99.90
29731;DHT22;16639;51.488;0.152;2023-04-01T15:00:13;11.30;99.90
29731;DHT22;16639;51.488;0.152;2023-04-01T15:03:00;11.30;99.90
29731;DHT22;16639;51.488;0.152;2023-04-01T15:08:42;11.20;99.90
29731;DHT22;16639;51.488;0.152;2023-04-01T15:16:39;11.20;99.90
29731;DHT22;16639;51.488;0.152;2023-04-01T15:19:37;11.20;99.90
29731;DHT22;16639;51.488;0.152;2023-04-01T15:27:59;11.10;99.90
29731;DHT22;16639;51.488;0.152;2023-04-01T15:30:46;11.20;99.90
29731;DHT22;16639;51.488;0.152;2023-04-01T15:36:32;11.70;99.90
29731;DHT22;16639;51.488;0.152;2023-04-01T15:42:30;11.20;99.90
29731;DHT22;16639;51.488;0.152;2023-04-01T15:56:26;11.10;99.90
29731;DHT22;16639;51.488;0.152;2023-04-01T16:02:07;11.00;99.90
29731;DHT22;16639;51.488;0.152;2023-04-01T16:16:14;10.80;99.90
29731;DHT22;16639;51.488;0.152;2023-04-01T16:19:19;10.80;99.90
29731;DHT22;16639;51.488;0.152;2023-04-01T16:22:01;11.50;99.90
29731;DHT22;16639;51.488;0.152;2023-04-01T16:24:48;10.80;99.90
29731;DHT22;16639;51.488;0.152;2023-04-01T16:27:40;10.70;99.90
29731;DHT22;16639;51.488;0.152;2023-04-01T16:30:38;10.50;99.90
29731;DHT22;16639;51.488;0.152;2023-04-01T16:33:18;10.60;99.90
29731;DHT22;16639;51.488;0.152;2023-04-01T16:38:40;9.70;99.90
29731;DHT22;16639;51.488;0.152;2023-04-01T16:41:17;10.50;99.90
29731;DHT22;16639;51.488;0.152;2023-04-01T16:43:59;10.70;99.90
29731;DHT22;16639;51.488;0.152;2023-04-01T16:46:43;10.50;99.90
29731;DHT22;16639;51.488;0.152;2023-04-01T16:56:53;10.50;99.90
29731;DHT22;16639;51.488;0.152;2023-04-01T16:59:33;10.60;99.90
29731;DHT22;16639;51.488;0.152;2023-04-01T17:04:34;10.50;99.90
29731;DHT22;16639;51.488;0.152;2023-04-01T17:13:05;10.50;99.90
29731;DHT22;16639;51.488;0.152;2023-04-01T17:18:29;10.60;99.90
29731;DHT22;16639;51.488;0.152;2023-04-01T17:21:34;10.50;99.90
29731;DHT22;16639;51.488;0.152;2023-04-01T17:29:22;11.10;99.90
29731;DHT22;16639;51.488;0.152;2023-04-01T17:32:09;10.50;99.90
29731;DHT22;16639;51.488;0.152;2023-04-01T17:34:44;10.50;99.90
29731;DHT22;16639;51.488;0.152;2023-04-01T17:37:22;10.50;99.90
29731;DHT22;16639;51.488;0.152;2023-04-01T17:58:08;10.50;99.90
29731;DHT22;16639;51.488;0.152;2023-04-01T18:03:24;10.50;99.90
29731;DHT22;16639;51.488;0.152;2023-04-01T18:06:07;10.80;99.90
29731;DHT22;16639;51.488;0.152;2023-04-01T18:11:39;10.50;99.90
29731;DHT22;16639;51.488;0.152;2023-04-01T18:20:06;10.40;99.90
29731;DHT22;16639;51.488;0.152;2023-04-01T18:22:57;10.40;99.90
29731;DHT22;16639;51.488;0.152;2023-04-01T18:25:44;10.30;99.90
29731;DHT22;16639;51.488;0.152;2023-04-01T18:32:01;10.20;99.90
29731;DHT22;16639;51.488;0.152;2023-04-01T18:34:20;10.20;99.90
29731;DHT22;16639;51.488;0.152;2023-04-01T18:37:02;10.00;99.90
29731;DHT22;16639;51.488;0.152;2023-04-01T18:39:42;10.10;99.90
29731;DHT22;16639;51.488;0.152;2023-04-01T18:42:44;10.10;99.90
29731;DHT22;16639;51.488;0.152;2023-04-01T18:50:55;10.10;99.90
29731;DHT22;16639;51.488;0.152;2023-04-01T18:56:11;10.00;99.90
29731;DHT22;16639;51.488;0.152;2023-04-01T18:58:59;10.00;99.90
29731;DHT22;16639;51.488;0.152;2023-04-01T19:01:35;9.90;99.90
29731;DHT22;16639;51.488;0.152;2023-04-01T19:04:08;9.90;99.90
29731;DHT22;16639;51.488;0.152;2023-04-01T19:06:55;9.90;99.90
29731;DHT22;16639;51.488;0.152;2023-04-01T19:09:27;9.90;99.90
29731;DHT22;16639;51.488;0.152;2023-04-01T19:26:10;9.60;99.90
29731;DHT22;16639;51.488;0.152;2023-04-01T19:28:53;9.60;99.90
29731;DHT22;16639;51.488;0.152;2023-04-01T19:34:19;9.50;99.90
29731;DHT22;16639;51.488;0.152;2023-04-01T19:37:09;9.50;99.90
29731;DHT22;16639;51.488;0.152;2023-04-01T19:39:44;9.50;99.90
29731;DHT22;16639;51.488;0.152;2023-04-01T19:51:06;9.50;99.90
29731;DHT22;16639;51.488;0.152;2023-04-01T20:01:30;9.60;99.90
29731;DHT22;16639;51.488;0.152;2023-04-01T20:04:17;9.60;99.90
29731;DHT22;16639;51.488;0.152;2023-04-01T20:07:09;9.60;99.90
29731;DHT22;16639;51.488;0.152;2023-04-01T20:17:55;9.60;99.90
29731;DHT22;16639;51.488;0.152;2023-04-01T20:20:27;9.60;99.90
29731;DHT22;16639;51.488;0.152;2023-04-01T20:23:16;9.60;99.90
29731;DHT22;16639;51.488;0.152;2023-04-01T20:26:03;9.60;99.90
29731;DHT22;16639;51.488;0.152;2023-04-01T20:31:36;9.60;99.90
29731;DHT22;16639;51.488;0.152;2023-04-01T20:40:29;9.60;99.90
29731;DHT22;16639;51.488;0.152;2023-04-01T20:57:27;9.60;99.90
29731;DHT22;16639;51.488;0.152;2023-04-01T21:00:16;9.50;99.90
29731;DHT22;16639;51.488;0.152;2023-04-01T21:06:14;9.50;99.90
29731;DHT22;16639;51.488;0.152;2023-04-01T21:09:09;9.50;99.90
29731;DHT22;16639;51.488;0.152;2023-04-01T21:11:56;9.50;99.90
29731;DHT22;16639;51.488;0.152;2023-04-01T21:17:51;9.40;99.90
29731;DHT22;16639;51.488;0.152;2023-04-01T21:20:49;9.30;99.90
29731;DHT22;16639;51.488;0.152;2023-04-01T21:35:34;9.20;99.90
29731;DHT22;16639;51.488;0.152;2023-04-01T21:44:09;9.30;99.90
29731;DHT22;16639;51.488;0.152;2023-04-01T22:06:38;9.20;99.90
29731;DHT22;16639;51.488;0.152;2023-04-01T22:09:32;9.20;99.90
29731;DHT22;16639;51.488;0.152;2023-04-01T22:20:35;9.20;99.90
29731;DHT22;16639;51.488;0.152;2023-04-01T22:24:53;9.10;99.90
29731;DHT22;16639;51.488;0.152;2023-04-01T22:27:38;9.20;99.90
29731;DHT22;16639;51.488;0.152;2023-04-01T22:30:39;9.20;99.90
29731;DHT22;16639;51.488;0.152;2023-04-01T22:33:21;9.30;99.90
29731;DHT22;16639;51.488;0.152;2023-04-01T22:36:19;9.20;99.90
29731;DHT22;16639;51.488;0.152;2023-04-01T22:41:51;9.20;99.90
29731;DHT22;16639;51.488;0.152;2023-04-01T22:47:26;9.20;99.90
29731;DHT22;16639;51.488;0.152;2023-04-01T22:50:04;9.20;99.90
29731;DHT22;16639;51.488;0.152;2023-04-01T22:52:40;9.20;99.90
29731;DHT22;16639;51.488;0.152;2023-04-01T22:55:20;9.30;99.90
29731;DHT22;16639;51.488;0.152;2023-04-01T22:57:50;9.20;99.90
29731;DHT22;16639;51.488;0.152;2023-04-01T23:00:27;9.20;99.90
29731;DHT22;16639;51.488;0.152;2023-04-01T23:03:08;9.20;99.90
29731;DHT22;16639;51.488;0.152;2023-04-01T23:05:54;9.30;99.90
29731;DHT22;16639;51.488;0.152;2023-04-01T23:10:56;9.20;99.90
29731;DHT22;16639;51.488;0.152;2023-04-01T23:13:41;9.20;99.90
29731;DHT22;16639;51.488;0.152;2023-04-01T23:16:10;9.20;99.90
29731;DHT22;16639;51.488;0.152;2023-04-01T23:18:52;9.10;99.90
29731;DHT22;16639;51.488;0.152;2023-04-01T23:21:53;9.10;99.90
29731;DHT22;16639;51.488;0.152;2023-04-01T23:24:33;9.00;99.90
29731;DHT22;16639;51.488;0.152;2023-04-01T23:27:08;9.00;99.90
29731;DHT22;16639;51.488;0.152;2023-04-01T23:29:39;8.90;99.90
29731;DHT22;16639;51.488;0.152;2023-04-01T23:32:30;8.90;99.90
29731;DHT22;16639;51.488;0.152;2023-04-01T23:34:58;8.90;99.90
29731;DHT22;16639;51.488;0.152;2023-04-01T23:37:27;8.90;99.90
29731;DHT22;16639;51.488;0.152;2023-04-01T23:39:57;8.90;99.90
29731;DHT22;16639;51.488;0.152;2023-04-01T23:42:29;8.80;99.90
29731;DHT22;16639;51.488;0.152;2023-04-01T23:45:04;8.90;99.90
29731;DHT22;16639;51.488;0.152;2023-04-01T23:47:38;9.00;99.90
29731;DHT22;16639;51.488;0.152;2023-04-01T23:50:10;9.10;99.90
29731;DHT22;16639;51.488;0.152;2023-04-01T23:53:03;9.00;99.90
29731;DHT22;16639;51.488;0.152;2023-04-01T23:55:41;8.90;99.90
